Time;durP1;ratioP1;P1;durP2;ratioP2;P2;SDS_P1;SDS_P2;PMS_P1;PMS_P2;Temp;Humidity;BMP_temperature;BMP_pressure;BME280_temperature;BME280_humidity;BME280_pressure;Samples;Min_cycle;Max_cycle;Signal;HPM_P1;HPM_P2
2022/05/26 00:01:16;;;;;;;25.52;8.30;;;13.80;99.90;;;;;;4938560;29;20138;-84
2022/05/26 00:03:44;;;;;;;18.08;7.57;;;13.80;99.90;;;;;;4954983;29;20183;-83
2022/05/26 00:06:12;;;;;;;23.73;7.85;;;13.90;99.90;;;;;;4954851;29;20066;-84
2022/05/26 00:08:38;;;;;;;26.80;8.02;;;13.90;99.90;;;;;;4955792;29;20052;-83
2022/05/26 00:11:28;;;;;;;23.75;8.75;;;13.80;99.90;;;;;;4953876;28;20484;-84
2022/05/26 00:13:55;;;;;;;19.63;8.00;;;13.80;99.90;;;;;;4954424;29;20062;-83
2022/05/26 00:16:21;;;;;;;18.75;7.28;;;13.80;99.90;;;;;;4970632;28;20087;-85
2022/05/26 00:18:47;;;;;;;21.20;8.77;;;13.80;99.90;;;;;;4953681;28;20090;-84
2022/05/26 00:21:13;;;;;;;19.88;9.32;;;13.80;99.90;;;;;;4953622;29;20279;-83
2022/05/26 00:23:39;;;;;;;20.38;7.45;;;13.90;99.90;;;;;;4955471;29;20091;-82
2022/05/26 00:26:05;;;;;;;23.13;9.57;;;13.90;99.90;;;;;;4953416;29;20086;-83
2022/05/26 00:28:31;;;;;;;24.23;9.32;;;13.80;99.90;;;;;;4954121;28;20381;-80
2022/05/26 00:30:57;;;;;;;23.38;9.88;;;13.80;99.90;;;;;;4953074;29;20106;-84
2022/05/26 00:33:23;;;;;;;23.38;9.82;;;13.80;99.90;;;;;;4955061;29;20518;-83
2022/05/26 00:35:49;;;;;;;23.35;9.90;;;13.80;99.90;;;;;;4955238;28;20098;-81
2022/05/26 00:38:16;;;;;;;25.50;9.43;;;13.80;99.90;;;;;;4955082;29;20098;-83
2022/05/26 00:40:43;;;;;;;25.48;8.43;;;13.80;99.90;;;;;;4955076;28;20062;-82
2022/05/26 00:43:10;;;;;;;;;;;13.80;99.90;;;;;;4970611;28;20146;-84
2022/05/26 00:45:43;;;;;;;22.42;8.77;;;13.80;99.90;;;;;;4954164;29;19969;-82
2022/05/26 00:48:15;;;;;;;28.65;10.05;;;13.80;99.90;;;;;;4956531;29;20047;-85
2022/05/26 00:50:55;;;;;;;23.23;9.68;;;13.80;99.90;;;;;;4956207;28;20447;-81
2022/05/26 00:53:38;;;;;;;25.95;9.65;;;13.90;99.90;;;;;;4955084;29;20062;-81
2022/05/26 00:56:18;;;;;;;25.92;9.80;;;13.80;99.90;;;;;;4954148;29;20043;-81
2022/05/26 00:58:48;;;;;;;25.98;9.57;;;13.80;99.90;;;;;;4954820;29;20121;-86
2022/05/26 01:01:16;;;;;;;26.58;9.77;;;13.80;99.90;;;;;;4956161;28;20091;-82
2022/05/26 01:03:47;;;;;;;26.52;9.90;;;13.80;99.90;;;;;;4940862;29;20507;-81
2022/05/26 01:06:21;;;;;;;29.48;10.10;;;13.80;99.90;;;;;;4958806;29;20043;-84
2022/05/26 01:08:54;;;;;;;27.90;10.13;;;13.70;99.90;;;;;;4958672;28;20146;-83
2022/05/26 01:11:22;;;;;;;23.45;9.75;;;13.70;99.90;;;;;;4960470;28;20065;-84
2022/05/26 01:14:08;;;;;;;24.67;9.85;;;13.60;99.90;;;;;;4959357;29;20107;-81
2022/05/26 01:17:01;;;;;;;32.28;11.10;;;13.60;99.90;;;;;;4954523;29;20055;-83
2022/05/26 01:19:57;;;;;;;28.10;11.23;;;13.60;99.90;;;;;;4957864;28;20078;-82
2022/05/26 01:22:51;;;;;;;26.40;11.07;;;13.60;99.90;;;;;;4958346;29;20388;-82
2022/05/26 01:25:38;;;;;;;29.70;11.63;;;13.70;99.90;;;;;;4973557;28;20055;-83
2022/05/26 01:28:35;;;;;;;31.02;10.68;;;13.60;99.90;;;;;;4958739;29;20055;-82
2022/05/26 01:31:38;;;;;;;28.80;10.93;;;13.60;99.90;;;;;;4972963;28;20043;-83
2022/05/26 01:34:50;;;;;;;30.50;11.38;;;13.60;99.90;;;;;;4957620;28;20043;-83
2022/05/26 01:37:47;;;;;;;31.08;11.30;;;13.60;99.90;;;;;;4955793;29;20051;-83
2022/05/26 01:40:46;;;;;;;30.35;10.85;;;13.60;99.90;;;;;;4956983;28;20062;-81
2022/05/26 01:43:18;;;;;;;33.70;11.25;;;13.50;99.90;;;;;;4956997;29;20043;-84
2022/05/26 01:45:59;;;;;;;36.40;11.52;;;13.60;99.90;;;;;;4958165;28;20106;-81
2022/05/26 01:48:24;;;;;;;33.83;11.38;;;13.60;99.90;;;;;;4973588;28;20147;-81
2022/05/26 01:51:20;;;;;;;32.17;11.95;;;13.60;99.90;;;;;;4958270;28;20529;-84
2022/05/26 01:54:17;;;;;;;34.92;11.07;;;13.60;99.90;;;;;;4957223;29;20051;-83
2022/05/26 01:56:58;;;;;;;34.67;10.98;;;13.70;99.90;;;;;;4958215;28;20128;-83
2022/05/26 01:59:28;;;;;;;27.40;8.30;;;13.60;99.90;;;;;;4957485;29;20142;-82
2022/05/26 02:02:02;;;;;;;30.65;10.60;;;13.60;99.90;;;;;;4940849;29;20049;-84
2022/05/26 02:04:37;;;;;;;34.92;11.48;;;13.70;99.90;;;;;;4958478;28;20089;-84
2022/05/26 02:07:16;;;;;;;30.27;11.18;;;13.60;99.90;;;;;;4957175;29;20055;-82
2022/05/26 02:09:44;;;;;;;33.08;11.85;;;13.60;99.90;;;;;;4958278;28;20110;-80
2022/05/26 02:12:20;;;;;;;32.70;11.27;;;13.60;99.90;;;;;;4963219;29;20051;-82
2022/05/26 02:14:53;;;;;;;33.53;11.00;;;13.60;99.90;;;;;;4968205;28;20047;-81
2022/05/26 02:17:25;;;;;;;30.98;12.30;;;13.60;99.90;;;;;;4967141;28;20059;-80
2022/05/26 02:19:56;;;;;;;31.40;10.68;;;13.60;99.90;;;;;;4982085;28;20162;-82
2022/05/26 02:22:30;;;;;;;31.13;10.98;;;13.60;99.90;;;;;;4966656;28;20102;-81
2022/05/26 02:25:16;;;;;;;33.28;12.05;;;13.70;99.90;;;;;;4959688;29;20198;-83
2022/05/26 02:27:42;;;;;;;34.47;10.93;;;13.70;99.90;;;;;;4958490;28;20086;-78
2022/05/26 02:30:12;;;;;;;33.50;10.90;;;13.70;99.90;;;;;;4973426;28;20074;-83
2022/05/26 02:32:41;;;;;;;29.35;10.55;;;13.70;99.90;;;;;;4956722;28;20082;-82
2022/05/26 02:35:18;;;;;;;29.92;11.18;;;13.70;99.90;;;;;;4956242;29;20110;-83
2022/05/26 02:37:47;;;;;;;41.45;11.65;;;13.80;99.90;;;;;;4972584;28;20107;-80
2022/05/26 02:40:14;;;;;;;31.08;10.95;;;13.80;99.90;;;;;;4957771;29;20055;-81
2022/05/26 02:42:50;;;;;;;;;;;13.80;99.90;;;;;;4956888;29;20121;-84
2022/05/26 02:45:27;;;;;;;33.55;10.10;;;13.90;99.90;;;;;;4957574;28;19969;-81
2022/05/26 02:48:08;;;;;;;37.30;10.77;;;13.90;99.90;;;;;;4972439;28;20114;-82
2022/05/26 02:50:43;;;;;;;38.85;10.45;;;13.90;99.90;;;;;;4956550;29;20055;-82
2022/05/26 02:53:27;;;;;;;40.95;10.80;;;13.90;99.90;;;;;;4955517;29;20055;-84
2022/05/26 02:56:19;;;;;;;31.98;11.07;;;13.90;99.90;;;;;;4956696;29;20128;-81
2022/05/26 02:59:11;;;;;;;40.60;10.57;;;13.90;99.90;;;;;;4952421;29;20074;-77
2022/05/26 03:01:47;;;;;;;30.92;9.73;;;14.00;99.90;;;;;;4957754;28;20078;-84
2022/05/26 03:04:24;;;;;;;35.60;10.83;;;14.00;99.90;;;;;;4956632;29;20119;-82
2022/05/26 03:06:58;;;;;;;41.25;10.48;;;14.00;99.90;;;;;;4955891;29;20468;-83
2022/05/26 03:09:26;;;;;;;39.35;11.13;;;14.00;99.90;;;;;;4956649;28;20098;-82
2022/05/26 03:11:57;;;;;;;34.90;10.20;;;14.00;99.90;;;;;;4956414;29;20106;-82
2022/05/26 03:14:23;;;;;;;36.67;10.20;;;14.00;99.90;;;;;;4957352;29;20058;-84
2022/05/26 03:16:49;;;;;;;42.65;10.43;;;14.00;99.90;;;;;;4954732;29;20081;-81
2022/05/26 03:19:16;;;;;;;40.03;9.97;;;14.00;99.90;;;;;;4956401;29;20063;-79
2022/05/26 03:21:42;;;;;;;35.05;9.02;;;13.90;99.90;;;;;;4955858;29;20291;-82
2022/05/26 03:24:09;;;;;;;39.58;8.95;;;13.90;99.90;;;;;;4956012;29;20051;-81
2022/05/26 03:26:36;;;;;;;31.67;8.85;;;13.90;99.90;;;;;;4955899;28;20062;-83
2022/05/26 03:29:03;;;;;;;38.78;8.60;;;13.90;99.90;;;;;;4958424;29;20075;-81
2022/05/26 03:31:30;;;;;;;36.80;9.20;;;13.90;99.90;;;;;;4971978;28;20131;-82
2022/05/26 03:42:11;;;;;;;38.83;7.68;;;13.80;99.90;;;;;;4959022;29;20047;-85
2022/05/26 03:44:36;;;;;;;34.55;8.40;;;13.80;99.90;;;;;;4958611;28;20118;-84
2022/05/26 03:47:03;;;;;;;41.67;7.93;;;13.80;99.90;;;;;;4974368;28;20042;-82
2022/05/26 03:49:29;;;;;;;39.42;8.20;;;13.80;99.90;;;;;;4943140;29;20421;-85
2022/05/26 03:51:57;;;;;;;32.78;6.90;;;13.80;99.90;;;;;;4962401;29;20085;-83
2022/05/26 03:54:23;;;;;;;39.13;7.55;;;13.80;99.90;;;;;;4963262;29;20058;-85
2022/05/26 03:56:49;;;;;;;29.45;7.18;;;13.80;99.90;;;;;;4964527;29;20058;-80
2022/05/26 03:59:15;;;;;;;37.15;7.78;;;13.80;99.90;;;;;;4963947;29;20059;-84
2022/05/26 04:01:40;;;;;;;28.70;6.50;;;13.80;99.90;;;;;;4963192;29;20126;-83
2022/05/26 04:04:07;;;;;;;32.92;7.88;;;13.80;99.90;;;;;;4957975;28;20435;-85
2022/05/26 04:06:32;;;;;;;34.00;6.03;;;13.80;99.90;;;;;;4956834;29;20067;-83
2022/05/26 04:08:59;;;;;;;34.83;6.72;;;13.80;99.90;;;;;;4958857;29;20130;-83
2022/05/26 04:11:25;;;;;;;24.60;4.38;;;13.80;99.90;;;;;;4961598;28;20055;-82
2022/05/26 04:13:52;;;;;;;33.37;5.20;;;13.90;99.90;;;;;;4966273;28;20043;-80
2022/05/26 04:16:19;;;;;;;28.92;5.43;;;13.90;99.90;;;;;;4967975;29;20062;-83
2022/05/26 04:18:44;;;;;;;24.67;4.25;;;13.90;99.90;;;;;;4967890;29;20050;-86
2022/05/26 04:21:12;;;;;;;20.98;4.10;;;13.80;99.90;;;;;;4965467;29;20051;-83
2022/05/26 04:23:38;;;;;;;26.88;4.13;;;13.90;99.90;;;;;;4968071;28;20050;-83
2022/05/26 04:26:07;;;;;;;29.33;3.83;;;13.80;99.90;;;;;;4981862;28;20135;-85
2022/05/26 04:28:33;;;;;;;20.17;3.05;;;13.80;99.90;;;;;;4957606;29;20043;-86
2022/05/26 04:30:58;;;;;;;14.27;2.35;;;13.80;99.90;;;;;;4955859;29;20456;-85
2022/05/26 04:33:24;;;;;;;14.65;2.53;;;13.80;99.90;;;;;;4956364;28;20117;-84
2022/05/26 04:35:51;;;;;;;16.70;2.40;;;13.80;99.90;;;;;;4956530;28;20050;-81
2022/05/26 04:38:18;;;;;;;16.00;2.70;;;13.80;99.90;;;;;;4956639;28;20416;-84
2022/05/26 04:40:45;;;;;;;15.07;2.13;;;13.80;99.90;;;;;;4957301;29;20043;-86
2022/05/26 04:43:12;;;;;;;20.00;2.60;;;13.90;99.90;;;;;;4960651;29;20051;-84
2022/05/26 04:45:39;;;;;;;14.90;2.05;;;13.90;99.90;;;;;;4971406;28;20116;-83
2022/05/26 04:48:05;;;;;;;19.98;1.90;;;13.90;99.90;;;;;;4969694;29;20054;-83
2022/05/26 04:50:31;;;;;;;19.55;2.13;;;14.00;99.90;;;;;;4980750;28;20049;-86
2022/05/26 04:52:57;;;;;;;12.27;1.90;;;14.00;99.90;;;;;;4958465;28;20134;-84
2022/05/26 04:55:22;;;;;;;13.60;2.25;;;14.10;99.90;;;;;;4957340;29;20043;-83
2022/05/26 04:57:48;;;;;;;14.10;1.75;;;14.10;99.90;;;;;;4972797;28;20354;-85
2022/05/26 05:00:16;;;;;;;17.70;2.40;;;14.20;99.90;;;;;;4957908;29;20052;-84
2022/05/26 05:02:42;;;;;;;14.98;3.13;;;14.30;99.90;;;;;;4956404;29;20077;-85
2022/05/26 05:05:10;;;;;;;13.63;2.13;;;14.40;99.90;;;;;;4957766;29;20211;-85
2022/05/26 05:07:36;;;;;;;12.65;2.25;;;14.50;99.90;;;;;;4959144;28;20311;-85
2022/05/26 05:10:03;;;;;;;12.70;2.00;;;14.70;99.90;;;;;;4957922;29;20062;-81
2022/05/26 05:12:28;;;;;;;11.32;2.03;;;14.80;99.90;;;;;;4959347;28;20043;-86
2022/05/26 05:14:56;;;;;;;15.40;1.80;;;14.90;99.90;;;;;;4958898;29;20145;-86
2022/05/26 05:17:24;;;;;;;12.32;1.88;;;15.00;99.90;;;;;;4959112;29;20102;-84
2022/05/26 05:19:51;;;;;;;13.02;1.70;;;15.00;99.90;;;;;;4960150;28;20055;-84
2022/05/26 05:22:26;;;;;;;13.43;1.80;;;15.00;99.90;;;;;;4959293;29;20106;-83
2022/05/26 05:25:10;;;;;;;12.85;2.13;;;15.00;99.90;;;;;;4926596;29;20335;-83
2022/05/26 05:28:05;;;;;;;13.95;2.22;;;15.00;99.90;;;;;;4959231;29;20070;-85
2022/05/26 05:30:57;;;;;;;11.80;1.33;;;15.10;99.90;;;;;;4954238;28;20407;-81
2022/05/26 05:33:32;;;;;;;14.82;1.25;;;15.10;99.90;;;;;;4958635;28;20123;-82
2022/05/26 05:36:06;;;;;;;9.75;1.73;;;15.10;99.90;;;;;;4960127;28;20114;-81
2022/05/26 05:38:35;;;;;;;14.25;1.52;;;15.10;99.90;;;;;;4961402;29;20106;-83
2022/05/26 05:41:02;;;;;;;13.02;1.40;;;15.20;99.90;;;;;;4959535;28;20078;-79
2022/05/26 05:43:30;;;;;;;16.25;1.67;;;15.20;99.90;;;;;;4958173;29;20054;-84
2022/05/26 05:45:57;;;;;;;12.50;1.48;;;15.30;99.90;;;;;;4957481;29;20059;-84
2022/05/26 05:48:23;;;;;;;14.73;1.38;;;15.30;99.90;;;;;;4958867;28;20130;-83
2022/05/26 05:50:49;;;;;;;11.40;1.80;;;15.30;99.90;;;;;;4960490;29;20051;-85
2022/05/26 05:53:15;;;;;;;14.15;1.58;;;15.30;99.90;;;;;;4959585;29;20054;-84
2022/05/26 05:55:41;;;;;;;9.80;1.10;;;15.40;99.90;;;;;;4960019;29;20082;-82
2022/05/26 05:58:09;;;;;;;11.52;1.13;;;15.50;99.90;;;;;;4960721;28;20047;-84
2022/05/26 06:00:36;;;;;;;10.80;1.30;;;15.50;99.90;;;;;;4961550;29;20123;-82
2022/05/26 06:03:03;;;;;;;6.32;0.80;;;15.40;99.90;;;;;;4962788;28;20388;-80
2022/05/26 06:05:29;;;;;;;10.23;1.05;;;15.40;99.90;;;;;;4960755;29;20047;-83
2022/05/26 06:07:55;;;;;;;8.50;1.02;;;15.40;99.90;;;;;;4960987;29;20145;-81
2022/05/26 06:10:21;;;;;;;10.85;1.08;;;15.30;99.90;;;;;;4975412;28;20047;-81
2022/05/26 06:12:47;;;;;;;9.67;1.30;;;15.30;99.90;;;;;;4961341;29;20138;-83
2022/05/26 06:15:13;;;;;;;9.27;1.45;;;15.30;99.90;;;;;;4960460;29;20369;-82
2022/05/26 06:17:39;;;;;;;10.70;1.23;;;15.30;99.90;;;;;;4960338;28;20047;-83
2022/05/26 06:20:06;;;;;;;9.85;1.20;;;15.40;99.90;;;;;;4959118;29;20067;-79
2022/05/26 06:22:35;;;;;;;13.90;1.38;;;15.60;99.90;;;;;;4958247;29;20448;-83
2022/05/26 06:25:01;;;;;;;10.70;1.48;;;15.80;99.90;;;;;;4960233;28;20054;-83
2022/05/26 06:30:15;;;;;;;14.80;2.22;;;16.10;99.90;;;;;;4960410;29;20058;-83
2022/05/26 06:38:15;;;;;;;7.07;0.95;;;16.50;99.90;;;;;;4956834;29;20444;-82
2022/05/26 06:40:41;;;;;;;7.10;0.80;;;16.50;99.90;;;;;;4942220;29;20051;-83
2022/05/26 06:43:06;;;;;;;6.00;0.68;;;16.50;99.90;;;;;;4942848;29;20055;-81
2022/05/26 06:45:34;;;;;;;6.60;0.60;;;16.60;99.90;;;;;;4960502;29;20047;-81
2022/05/26 06:48:00;;;;;;;9.35;0.60;;;16.70;99.90;;;;;;4959862;28;20043;-80
2022/05/26 06:50:26;;;;;;;6.25;0.45;;;16.90;99.90;;;;;;4959818;29;20057;-82
2022/05/26 06:52:51;;;;;;;5.97;0.57;;;17.10;99.90;;;;;;4958884;28;20463;-84
2022/05/26 06:55:17;;;;;;;5.28;0.60;;;17.40;99.90;;;;;;4960172;28;20044;-82
2022/05/26 06:57:43;;;;;;;3.90;0.40;;;17.40;99.90;;;;;;4960196;29;20050;-83
2022/05/26 07:00:12;;;;;;;5.32;0.47;;;17.20;99.90;;;;;;4958994;28;20051;-83
2022/05/26 07:02:38;;;;;;;7.63;0.55;;;17.40;99.90;;;;;;4957922;29;20078;-85
2022/05/26 07:05:04;;;;;;;4.53;0.43;;;17.50;99.90;;;;;;4960620;29;20043;-85
2022/05/26 07:07:32;;;;;;;4.18;0.63;;;17.50;99.90;;;;;;4958712;29;20075;-82
2022/05/26 07:09:58;;;;;;;8.70;0.63;;;17.50;99.90;;;;;;4957985;29;20077;-82
2022/05/26 07:12:24;;;;;;;4.82;0.63;;;17.60;99.90;;;;;;4958086;29;20039;-83
2022/05/26 07:14:51;;;;;;;5.57;0.43;;;17.60;99.90;;;;;;4957880;28;20043;-86
2022/05/26 07:17:17;;;;;;;6.30;0.40;;;17.80;99.90;;;;;;4956804;29;20055;-85
2022/05/26 07:19:43;;;;;;;4.80;0.40;;;17.80;99.90;;;;;;4957989;28;20067;-81
2022/05/26 07:22:09;;;;;;;6.40;0.70;;;17.90;99.90;;;;;;4956831;29;20338;-83
2022/05/26 07:24:35;;;;;;;6.40;0.50;;;17.80;99.90;;;;;;4958085;28;20086;-82
2022/05/26 07:27:01;;;;;;;6.97;1.13;;;17.70;99.90;;;;;;4956460;29;20051;-82
2022/05/26 07:29:27;;;;;;;2.85;0.50;;;17.80;99.90;;;;;;4955981;29;20051;-83
2022/05/26 07:31:54;;;;;;;4.13;0.57;;;17.80;99.90;;;;;;4957484;29;20408;-82
2022/05/26 07:34:20;;;;;;;3.60;0.28;;;17.80;99.90;;;;;;4956362;29;20082;-83
2022/05/26 07:42:20;;;;;;;3.47;0.43;;;18.00;99.90;;;;;;4956381;28;20051;-80
2022/05/26 07:44:49;;;;;;;3.17;0.40;;;17.90;99.90;;;;;;4957987;28;20051;-84
2022/05/26 07:47:16;;;;;;;5.10;0.70;;;18.00;99.90;;;;;;4956428;29;20054;-79
2022/05/26 07:49:44;;;;;;;6.40;0.50;;;18.10;99.90;;;;;;4970856;28;20047;-86
2022/05/26 07:52:10;;;;;;;5.07;0.40;;;18.20;99.90;;;;;;4956490;28;20055;-84
2022/05/26 07:54:37;;;;;;;2.40;0.30;;;18.30;99.90;;;;;;4955918;29;20583;-82
2022/05/26 07:57:04;;;;;;;;;;;18.40;99.90;;;;;;4957127;28;20051;-85
2022/05/26 07:59:29;;;;;;;2.80;0.30;;;18.50;99.90;;;;;;4955182;29;20373;-83
2022/05/26 08:01:55;;;;;;;3.90;0.50;;;18.50;99.90;;;;;;4956005;29;20134;-84
2022/05/26 08:04:21;;;;;;;4.60;0.50;;;18.20;99.90;;;;;;4958413;28;20360;-84
2022/05/26 08:06:48;;;;;;;3.53;0.30;;;18.10;99.90;;;;;;4960488;29;20309;-83
2022/05/26 08:09:15;;;;;;;1.75;0.20;;;18.00;99.90;;;;;;4958499;29;20058;-82
2022/05/26 08:11:41;;;;;;;4.60;0.25;;;17.90;99.90;;;;;;4957294;28;20047;-83
2022/05/26 08:14:07;;;;;;;2.63;0.40;;;17.80;99.90;;;;;;4961239;29;20174;-84
2022/05/26 08:16:34;;;;;;;8.35;0.40;;;17.80;99.90;;;;;;4962537;28;20469;-83
2022/05/26 08:19:00;;;;;;;2.42;0.30;;;17.70;99.90;;;;;;4960626;29;20392;-82
2022/05/26 08:21:26;;;;;;;3.88;0.32;;;17.80;99.90;;;;;;4960513;29;20356;-84
2022/05/26 08:23:53;;;;;;;6.50;0.40;;;17.80;99.90;;;;;;4960527;28;20047;-86
2022/05/26 08:26:20;;;;;;;5.03;0.30;;;17.80;99.90;;;;;;4958999;28;20126;-83
2022/05/26 08:28:45;;;;;;;3.20;0.35;;;17.90;99.90;;;;;;4960314;29;20062;-83
2022/05/26 08:31:15;;;;;;;2.83;0.67;;;17.80;99.90;;;;;;4960540;29;20047;-83
2022/05/26 08:33:41;;;;;;;5.78;0.60;;;17.70;99.90;;;;;;4960367;28;20047;-85
2022/05/26 08:36:10;;;;;;;4.28;0.30;;;17.80;99.90;;;;;;4959486;29;20392;-84
2022/05/26 08:38:37;;;;;;;4.45;0.30;;;17.90;99.90;;;;;;4960242;28;20057;-83
2022/05/26 08:41:03;;;;;;;4.80;0.50;;;18.10;99.90;;;;;;4960635;29;20089;-83
2022/05/26 08:43:38;;;;;;;;;;;18.20;99.90;;;;;;4960239;28;20055;-80
2022/05/26 08:46:08;;;;;;;4.35;0.50;;;18.30;99.90;;;;;;4974657;28;19932;-82
2022/05/26 08:48:52;;;;;;;2.67;0.30;;;18.00;99.90;;;;;;4958353;29;20083;-83
2022/05/26 08:51:47;;;;;;;4.50;0.50;;;18.10;99.90;;;;;;4959975;28;20043;-82
2022/05/26 08:54:45;;;;;;;6.10;0.45;;;18.10;99.90;;;;;;4956060;28;20059;-84
2022/05/26 08:57:15;;;;;;;5.53;0.50;;;18.20;99.90;;;;;;4957631;28;20050;-83
2022/05/26 08:59:46;;;;;;;4.47;0.40;;;17.90;99.90;;;;;;4960558;28;20043;-81
2022/05/26 09:02:25;;;;;;;4.18;0.30;;;17.90;99.90;;;;;;4959262;29;20058;-83
2022/05/26 09:04:54;;;;;;;2.15;0.10;;;17.90;99.90;;;;;;4959423;28;20044;-84
2022/05/26 09:13:24;;;;;;;5.07;0.30;;;18.30;99.90;;;;;;4957652;29;20055;-82
2022/05/26 09:15:50;;;;;;;1.80;0.20;;;18.80;99.90;;;;;;4973670;28;20043;-84
2022/05/26 09:18:19;;;;;;;4.40;0.40;;;19.20;99.90;;;;;;4958214;29;20076;-85
2022/05/26 09:20:47;;;;;;;2.45;0.30;;;19.40;99.90;;;;;;4958573;28;20109;-81
2022/05/26 09:23:34;;;;;;;2.30;0.20;;;19.50;99.90;;;;;;4958772;28;20570;-84
2022/05/26 09:26:06;;;;;;;2.35;0.20;;;19.50;98.90;;;;;;4959351;29;20048;-84
2022/05/26 09:28:45;;;;;;;6.65;0.30;;;19.50;97.50;;;;;;4974539;28;20051;-82
2022/05/26 09:31:32;;;;;;;4.97;0.40;;;19.60;98.10;;;;;;4958130;29;20050;-82
2022/05/26 09:34:01;;;;;;;3.40;0.38;;;19.50;97.90;;;;;;4960731;28;20054;-82
2022/05/26 09:36:29;;;;;;;4.20;0.38;;;19.70;98.80;;;;;;4958042;29;20105;-86
2022/05/26 09:38:55;;;;;;;3.00;0.32;;;19.90;99.50;;;;;;4958196;29;20051;-83
2022/05/26 09:41:21;;;;;;;2.67;0.30;;;20.00;98.20;;;;;;4959753;29;20134;-84
2022/05/26 09:43:51;;;;;;;2.50;0.30;;;20.10;98.20;;;;;;4977776;28;20058;-85
2022/05/26 09:46:17;;;;;;;2.78;0.38;;;20.10;97.60;;;;;;4963007;29;20113;-84
2022/05/26 09:48:46;;;;;;;4.65;0.50;;;20.00;97.70;;;;;;4963728;28;20079;-85
2022/05/26 09:51:21;;;;;;;4.38;0.40;;;20.00;97.80;;;;;;4962849;29;20066;-83
2022/05/26 09:53:51;;;;;;;1.40;0.17;;;20.20;98.10;;;;;;4959439;28;20051;-84
2022/05/26 09:56:40;;;;;;;4.35;0.57;;;20.00;97.90;;;;;;4959264;29;20047;-87
2022/05/26 09:59:42;;;;;;;6.32;0.47;;;20.00;98.00;;;;;;4959626;28;20046;-85
2022/05/26 10:02:29;;;;;;;5.85;0.40;;;20.00;97.70;;;;;;4938074;29;20067;-86
2022/05/26 10:05:01;;;;;;;2.35;0.30;;;19.90;97.60;;;;;;4958496;28;20063;-84
2022/05/26 10:07:29;;;;;;;5.28;0.50;;;20.20;97.50;;;;;;4958269;29;20093;-85
2022/05/26 10:10:00;;;;;;;7.70;0.60;;;20.30;97.60;;;;;;4958615;28;20515;-84
2022/05/26 10:12:35;;;;;;;4.93;0.60;;;20.40;97.40;;;;;;4974267;28;20090;-85
2022/05/26 10:15:34;;;;;;;4.15;0.40;;;20.20;96.90;;;;;;4958709;29;20428;-85
2022/05/26 10:18:27;;;;;;;5.30;0.68;;;20.10;96.70;;;;;;4960068;28;20472;-85
2022/05/26 10:21:15;;;;;;;5.68;0.70;;;19.80;96.30;;;;;;4959499;29;20105;-84
2022/05/26 10:24:26;;;;;;;3.55;0.52;;;19.50;96.30;;;;;;4959644;29;20059;-82
2022/05/26 10:27:09;;;;;;;5.80;0.63;;;19.20;96.80;;;;;;4942709;29;20044;-86
2022/05/26 10:30:04;;;;;;;5.20;0.68;;;18.90;98.10;;;;;;4958346;28;20078;-84
2022/05/26 10:32:56;;;;;;;6.00;1.00;;;18.80;98.70;;;;;;4951236;28;20388;-84
2022/05/26 10:35:39;;;;;;;6.97;1.40;;;18.90;99.50;;;;;;4938086;29;20531;-85
2022/05/26 10:38:24;;;;;;;5.63;0.90;;;19.00;99.90;;;;;;4957523;29;20137;-85
2022/05/26 10:41:12;;;;;;;8.07;1.48;;;19.40;99.90;;;;;;4958298;29;20051;-83
2022/05/26 10:43:38;;;;;;;6.05;1.13;;;19.60;99.10;;;;;;4956473;29;20135;-84
2022/05/26 10:46:07;;;;;;;7.80;1.27;;;20.10;98.10;;;;;;4957592;29;20138;-86
2022/05/26 10:48:51;;;;;;;7.30;1.30;;;20.40;98.60;;;;;;4941507;29;20443;-84
2022/05/26 10:51:21;;;;;;;8.07;1.42;;;20.60;99.30;;;;;;4962047;29;20051;-83
2022/05/26 10:54:05;;;;;;;8.35;1.20;;;20.90;98.90;;;;;;4957113;28;20044;-85
2022/05/26 10:57:04;;;;;;;7.53;1.20;;;20.90;98.70;;;;;;4955727;29;20051;-85
2022/05/26 10:59:59;;;;;;;5.50;0.80;;;20.70;98.80;;;;;;4956750;28;20527;-87
2022/05/26 11:02:32;;;;;;;6.22;1.00;;;20.70;98.70;;;;;;4972651;28;20051;-85
2022/05/26 11:05:04;;;;;;;4.85;1.20;;;20.40;97.80;;;;;;4971687;28;20062;-82
2022/05/26 11:07:35;;;;;;;3.30;0.73;;;20.40;98.10;;;;;;4956490;29;20055;-82
2022/05/26 11:10:13;;;;;;;7.10;0.80;;;20.50;97.50;;;;;;4961486;29;20098;-85
2022/05/26 11:12:51;;;;;;;4.30;0.95;;;20.50;97.00;;;;;;4960170;28;20051;-84
2022/05/26 11:18:26;;;;;;;6.00;1.10;;;20.20;97.40;;;;;;4956509;29;20059;-84
2022/05/26 11:20:54;;;;;;;4.20;0.80;;;20.50;96.90;;;;;;4957562;28;20066;-82
2022/05/26 11:23:25;;;;;;;4.38;1.00;;;20.70;96.40;;;;;;4957393;28;20062;-86
2022/05/26 11:26:02;;;;;;;9.43;1.05;;;20.60;95.70;;;;;;4955896;29;20152;-87
2022/05/26 11:28:40;;;;;;;9.43;1.95;;;20.80;96.20;;;;;;4971281;28;20127;-80
2022/05/26 11:36:59;;;;;;;3.47;0.60;;;21.20;94.20;;;;;;4955696;28;20118;-83
2022/05/26 11:39:40;;;;;;;4.03;0.70;;;21.20;93.10;;;;;;4970304;28;20077;-82
2022/05/26 11:42:10;;;;;;;6.00;1.70;;;21.20;93.40;;;;;;4955704;29;20047;-83
2022/05/26 11:44:53;;;;;;;5.35;0.50;;;21.20;92.70;;;;;;4970513;28;20083;-83
2022/05/26 11:47:40;;;;;;;7.20;0.70;;;20.80;92.70;;;;;;4954768;29;20047;-85
2022/05/26 11:50:49;;;;;;;3.20;0.80;;;20.90;94.50;;;;;;4954521;29;20166;-84
2022/05/26 11:53:33;;;;;;;5.13;0.70;;;21.20;93.90;;;;;;4948714;29;20082;-87
2022/05/26 11:56:04;;;;;;;3.90;0.70;;;21.40;93.10;;;;;;4955809;29;20066;-84
2022/05/26 11:58:38;;;;;;;7.75;0.80;;;21.20;93.50;;;;;;4955917;28;20070;-84
2022/05/26 12:01:19;;;;;;;7.32;1.02;;;21.00;93.70;;;;;;4957304;29;20054;-82
2022/05/26 12:03:49;;;;;;;5.03;1.00;;;21.00;93.40;;;;;;4957093;28;20058;-84
2022/05/26 12:06:16;;;;;;;9.40;0.90;;;20.80;93.40;;;;;;4958809;28;20495;-83
2022/05/26 12:08:54;;;;;;;4.60;0.63;;;20.90;93.10;;;;;;4960938;29;20333;-84
2022/05/26 12:11:56;;;;;;;6.53;0.60;;;21.10;92.80;;;;;;4962799;28;20055;-86
2022/05/26 12:14:44;;;;;;;4.75;0.80;;;21.00;93.40;;;;;;4962548;28;20051;-83
2022/05/26 12:17:33;;;;;;;7.32;0.80;;;21.00;93.70;;;;;;4962589;28;20047;-82
2022/05/26 12:20:11;;;;;;;5.43;0.90;;;20.60;93.40;;;;;;4963747;28;20051;-84
2022/05/26 12:22:49;;;;;;;6.18;0.43;;;20.90;93.20;;;;;;4960025;29;20130;-83
2022/05/26 12:25:27;;;;;;;5.65;0.60;;;21.10;92.70;;;;;;4965716;28;20054;-81
2022/05/26 12:27:55;;;;;;;3.50;0.60;;;21.30;92.80;;;;;;4962714;28;20063;-85
2022/05/26 12:30:36;;;;;;;5.68;0.80;;;21.20;93.00;;;;;;4982153;28;20058;-84
2022/05/26 12:33:22;;;;;;;6.90;0.82;;;21.20;92.50;;;;;;4964832;28;20198;-82
2022/05/26 12:36:02;;;;;;;5.80;0.90;;;21.50;92.70;;;;;;4974645;28;20047;-81
2022/05/26 12:38:43;;;;;;;5.93;0.60;;;21.60;92.20;;;;;;4958367;28;20047;-84
2022/05/26 12:41:37;;;;;;;7.35;0.65;;;21.80;91.70;;;;;;4955648;29;20153;-85
2022/05/26 12:44:40;;;;;;;6.20;0.60;;;21.80;90.70;;;;;;4957306;28;20072;-82
2022/05/26 12:47:24;;;;;;;8.85;0.80;;;21.60;91.00;;;;;;4956143;29;20101;-84
2022/05/26 12:49:58;;;;;;;4.63;0.77;;;21.50;91.60;;;;;;4956474;28;20095;-83
2022/05/26 12:52:57;;;;;;;5.20;0.70;;;21.40;91.30;;;;;;4956316;28;20151;-81
2022/05/26 12:55:41;;;;;;;4.63;0.70;;;21.30;91.80;;;;;;4956513;29;20039;-84
2022/05/26 12:58:18;;;;;;;7.88;0.93;;;21.00;91.20;;;;;;4940321;29;20440;-83
2022/05/26 13:00:48;;;;;;;6.05;0.80;;;21.00;91.30;;;;;;4958808;29;20487;-82
2022/05/26 13:03:23;;;;;;;7.47;0.70;;;20.90;92.10;;;;;;4960306;28;20604;-84
2022/05/26 13:06:07;;;;;;;6.65;0.70;;;21.00;92.30;;;;;;4958973;29;20051;-84
2022/05/26 13:08:54;;;;;;;7.78;0.80;;;20.90;92.70;;;;;;4959716;28;20058;-82
2022/05/26 13:11:26;;;;;;;8.88;0.75;;;20.80;92.30;;;;;;4960157;29;20062;-85
2022/05/26 13:13:56;;;;;;;10.45;1.00;;;21.00;91.80;;;;;;4961288;28;20082;-82
2022/05/26 13:16:37;;;;;;;7.25;0.70;;;21.10;91.30;;;;;;4975144;28;20039;-83
2022/05/26 13:19:11;;;;;;;7.45;0.82;;;21.20;91.60;;;;;;4962112;29;20073;-84
2022/05/26 13:21:37;;;;;;;8.02;0.80;;;21.30;91.10;;;;;;4960812;29;20058;-83
2022/05/26 13:24:04;;;;;;;11.32;0.80;;;21.40;91.00;;;;;;4960238;28;20432;-85
2022/05/26 13:26:31;;;;;;;7.15;0.73;;;21.40;91.10;;;;;;4959222;29;20421;-84
2022/05/26 13:29:01;;;;;;;6.30;0.30;;;21.30;91.30;;;;;;4959437;29;20051;-81
2022/05/26 13:34:14;;;;;;;5.25;0.73;;;21.10;89.70;;;;;;4960319;28;20066;-83
2022/05/26 13:36:46;;;;;;;8.10;0.80;;;21.50;89.70;;;;;;4957390;29;20154;-82
2022/05/26 13:39:18;;;;;;;8.65;0.80;;;21.30;89.70;;;;;;4959547;29;20050;-83
2022/05/26 13:41:48;;;;;;;9.63;0.75;;;21.10;90.20;;;;;;4959363;29;20058;-84
2022/05/26 13:44:38;;;;;;;9.02;0.90;;;21.30;89.60;;;;;;4960492;29;20055;-84
2022/05/26 13:47:08;;;;;;;8.80;0.80;;;21.30;90.00;;;;;;4961203;29;20170;-81
2022/05/26 13:49:58;;;;;;;7.55;0.80;;;21.50;89.40;;;;;;4964437;29;20055;-83
2022/05/26 13:52:27;;;;;;;10.20;1.13;;;21.50;89.90;;;;;;4966979;28;20161;-82